MMCS 090346Z 00000KT 10SM SCT100 BKN200 12/M03 A3001 RMK 8/072= 090346

MMCS 090245Z 00000KT 10SM SCT100 BKN200 14/M03 A3001 RMK SLP118 52001 968 8/072= 090248

MMCS 090140Z 00000KT 10SM SCT100 BKN200 15/M03 A3000 RMK 8/072= 090145

MMCS 090049Z 00000KT 10SM SCT100 BKN200 16/M03 A3000 RMK 8/038= 090050

MMCS 082348Z 21006KT 10SM SCT100 BKN200 17/M03 A3000 RMK SLP117 57009 955 8/038= 082351

MMCS 082240Z 20007KT 10SM SCT100 SCT200 19/M03 A3000 RMK 8/038= 082251

MMCS 082140Z 22006KT 10SM SCT100 BKN200 19/M09 A3000 RMK 8/032= 082151

MMCS 082040Z 20008KT 10SM BKN100 BKN250 18/M04 A3003 RMK SLP117 57028 911 8/032= 082041

MMCS 081940Z 26006KT 10SM BKN100 BKN250 19/M04 A3005 RMK 8/032= 081941

MMCS 081840Z 00000KT 10SM SCT100 BKN250 17/M04 A3009 RMK 8/032= 081841

MMCS 081746Z 00000KT 10SM SCT100 BKN250 16/M04 A3013 RMK SLP151 57002 916 8/032 MSGTX MMMX= 081746

MMCS 081716Z RTD 00000KT 10SM SCT100 BKN250 14/M04 A3015 RMK 8/032 MSGTX MMMX= 081716

MMCS 081540Z 00000KT 10SM SCT100 BKN250 11/M04 A3015 RMK 8/032= 081541

MMCS 081440Z 00000KT 10SM SCT100 BKN250 07/M04 A3013 RMK SLP170 5//// 923 8/032= 081443

MMCS 081340Z 00000KT 10SM FEW100 BKN250 05/M04 A3012 RMK 8/032= 081344

MMCS 081259Z RTD 30005KT 10SM BKN250 04/M04 A3012 RMK 8/006 RTS= 081300

MMCS 080347Z 00000KT 10SM SKC 12/M03 A3007= 080347

MMCS 080244Z 00000KT 10SM SKC 11/M03 A3007 RMK SLP144 52014 972= 080257

MMCS 080150Z 00000KT 10SM SKC 15/M03 A3005= 080151

MMCS 080043Z 00000KT 10SM SKC 17/M03 A3004= 080052

MMCS 072344Z 28005KT 10SM FEW200 19/03 A3002 RMK SLP109 52007 988 8/008= 072357

MMCS 072244Z 25009KT 10SM SKC 20/M04 A3000= 072244

MMCS 072149Z 25009KT 10SM FEW200 20/M04 A2999 RMK 8/008= 072149

MMCS 072045Z 26010KT 10SM BKN250 20/M04 A3000 RMK SLP096 57025 992 8/002= 072046

MMCS 071946Z 26006KT 10SM BKN250 19/M04 A3001 RMK 8/002= 071947

MMCS 071841Z 36005KT 10SM BKN250 18/M04 A3004 RMK 8/002 RTS= 071842

MMCS 071750Z 32010KT 10SM SCT250 17/M04 A3007 RMK SLP130 52005 993 8/002= 071750

MMCS 071645Z 22015KT 10SM SCT250 15/M04 A3008 RMK 8/002= 071646

MMCS 071553Z 24011KT 10SM SCT250 13/M05 A3007 RMK 8/002= 071553

MMCS 071447Z 24012KT 10SM SCT250 08/M05 A3006 RMK SLP143 5//// 992 8/002= 071448

MMCS 071340Z 16010KT 10SM SCT250 04/M06 A3005 RMK 8/002= 071341

MMCS 071254Z 25010KT 10SM FEW250 09/M05 A3003 RMK 8/005 RTS= 071254

MMCS 070349Z 00000KT 10SM SKC 09/M06 A3013= 070349

MMCS 070246Z 00000KT 10SM SKC 10/M06 A3014 RMK SLP175 57002 933= 070249

MMCS 070146Z 00000KT 10SM SKC 10/M06 A3014= 070149

MMCS 070045Z 00000KT 10SM SKC 12/M05 A3014= 070049

MMCS 062347Z 10005KT 10SM SKC 13/M06 A3015 RMK SLP174 57015 940= 062353

MMCS 062244Z 07007KT 10SM SKC 13/M07 A3016= 062245

MMCS 062149Z 08007KT 10SM SKC 13/M07 A3017= 062149

MMCS 062041Z 09012KT 10SM SKC 12/M07 A3020 RMK SLP180 57035 942= 062042

MMCS 062002Z RTD 13015KT 10SM SKC 12/M07 A3022= 062003

MMCS 061840Z 01014KT 10SM SKC 10/M08 A3027= 061841

MMCS 061745Z 09015KT 10SM SKC 08/M07 A3031 RMK SLP301 52013 943= 061748

MMCS 061641Z 10016KT 10SM SKC 07/M07 A3032= 061642

MMCS 061553Z 09012KT 10SM FEW250 06/M06 A3031 RMK 8/005= 061554

MMCS 061442Z 11008KT 7SM FEW250 00/M06 A3027 RMK SLP207 5//// 941 8/005= 061443

MMCS 061341Z 10010KT 3SM HZ FEW250 06/M05 A3023 RMK 8/005 VIS VRB= 061346

MMCS 061253Z 19006KT 10SM FEW250 05/M05 A3019 RMK 8/005 RTS= 061253

MMCS 060346Z 00000KT 10SM SKC 12/M07 A3004= 060346

MMCS 060247Z 00000KT 10SM SKC 16/M07 A3003 RMK SLP117 52014 973= 060255